Time;durP1;ratioP1;P1;durP2;ratioP2;P2;SDS_P1;SDS_P2;PMS_P1;PMS_P2;Temp;Humidity;BMP_temperature;BMP_pressure;BME280_temperature;BME280_humidity;BME280_pressure;Samples;Min_cycle;Max_cycle;Signal;HPM_P1;HPM_P2
2023/07/13 00:02:14;;;;;;;6.72;5.28;;;;;;;;;;4971665;28;20019;-78
2023/07/13 00:04:39;;;;;;;8.40;5.35;;;;;;;;;;4985728;28;20693;-78
2023/07/13 00:07:05;;;;;;;5.90;4.88;;;;;;;;;;4971320;28;20483;-78
2023/07/13 00:09:30;;;;;;;7.85;4.85;;;;;;;;;;4989078;28;20087;-78
2023/07/13 00:11:57;;;;;;;5.65;4.80;;;;;;;;;;4968101;28;20026;-78
2023/07/13 00:14:24;;;;;;;8.57;5.25;;;;;;;;;;4979394;28;20421;-78
2023/07/13 00:16:50;;;;;;;9.40;5.00;;;;;;;;;;4984504;28;20035;-78
2023/07/13 00:19:15;;;;;;;11.43;5.20;;;;;;;;;;4998884;28;20033;-78
2023/07/13 00:21:41;;;;;;;7.50;4.80;;;;;;;;;;5033084;28;20047;-79
2023/07/13 00:24:15;;;;;;;6.30;4.80;;;;;;;;;;4983465;28;20030;-78
2023/07/13 00:26:45;;;;;;;7.55;4.82;;;;;;;;;;4990813;28;20020;-78
2023/07/13 00:29:11;;;;;;;5.25;4.70;;;;;;;;;;5006570;28;20108;-78
2023/07/13 00:31:36;;;;;;;9.32;5.30;;;;;;;;;;5006013;28;20113;-78
2023/07/13 00:34:03;;;;;;;5.72;4.60;;;;;;;;;;5018491;28;20042;-78
2023/07/13 00:36:29;;;;;;;7.75;4.80;;;;;;;;;;5006304;28;20435;-78
2023/07/13 00:38:55;;;;;;;8.07;5.07;;;;;;;;;;4978790;28;20038;-78
2023/07/13 00:41:20;;;;;;;9.60;5.22;;;;;;;;;;4968000;28;20035;-78
2023/07/13 00:43:45;;;;;;;6.97;4.95;;;;;;;;;;4978501;28;20025;-78
2023/07/13 00:46:19;;;;;;;5.55;4.80;;;;;;;;;;4972952;28;20094;-78
2023/07/13 00:48:47;;;;;;;7.20;5.40;;;;;;;;;;4984427;28;20377;-78
2023/07/13 00:54:40;;;;;;;10.30;5.80;;;;;;;;;;4966658;28;20076;-78
2023/07/13 00:57:09;;;;;;;14.02;5.57;;;;;;;;;;5038507;28;20484;-78
2023/07/13 00:59:36;;;;;;;7.78;5.35;;;;;;;;;;4969397;28;20027;-78
2023/07/13 01:02:03;;;;;;;9.80;5.25;;;;;;;;;;4965431;28;20022;-77
2023/07/13 01:04:28;;;;;;;13.45;5.32;;;;;;;;;;4981206;28;20030;-78
2023/07/13 01:06:54;;;;;;;8.98;5.28;;;;;;;;;;4981689;28;20145;-78
2023/07/13 01:09:20;;;;;;;8.18;5.10;;;;;;;;;;4981827;28;20040;-77
2023/07/13 01:11:46;;;;;;;10.27;4.90;;;;;;;;;;4969382;28;20033;-77
2023/07/13 01:14:12;;;;;;;6.25;4.63;;;;;;;;;;4989852;28;20368;-78
2023/07/13 01:16:38;;;;;;;8.60;4.82;;;;;;;;;;4967908;28;20061;-78
2023/07/13 01:19:13;;;;;;;10.55;4.97;;;;;;;;;;4968372;28;20026;-77
2023/07/13 01:21:42;;;;;;;10.48;5.15;;;;;;;;;;4980846;28;20039;-77
2023/07/13 01:24:09;;;;;;;10.70;4.65;;;;;;;;;;4969298;28;20031;-77
2023/07/13 01:26:34;;;;;;;7.22;4.90;;;;;;;;;;4967864;28;20088;-78
2023/07/13 01:28:59;;;;;;;5.60;4.38;;;;;;;;;;4978284;28;20026;-78
2023/07/13 01:31:25;;;;;;;4.80;4.15;;;;;;;;;;4958390;28;20038;-77
2023/07/13 01:33:50;;;;;;;5.07;4.00;;;;;;;;;;4958391;28;20034;-77
2023/07/13 01:36:15;;;;;;;4.35;3.28;;;;;;;;;;4987253;28;20025;-77
2023/07/13 01:38:41;;;;;;;7.35;4.40;;;;;;;;;;5005564;28;20019;-77
2023/07/13 01:41:07;;;;;;;6.03;4.55;;;;;;;;;;4968610;28;20050;-77
2023/07/13 01:43:32;;;;;;;5.40;4.30;;;;;;;;;;4963903;28;20030;-77
2023/07/13 01:45:57;;;;;;;4.35;3.95;;;;;;;;;;4956161;28;20082;-76
2023/07/13 01:48:23;;;;;;;6.53;4.35;;;;;;;;;;4956035;28;20041;-77
2023/07/13 01:50:48;;;;;;;6.78;4.80;;;;;;;;;;4957408;28;20099;-77
2023/07/13 01:53:13;;;;;;;9.10;4.38;;;;;;;;;;4956696;28;20038;-77
2023/07/13 01:55:39;;;;;;;7.53;4.13;;;;;;;;;;4962235;28;20068;-77
2023/07/13 01:58:05;;;;;;;6.53;4.13;;;;;;;;;;4960056;28;20031;-77
2023/07/13 02:00:31;;;;;;;4.82;3.70;;;;;;;;;;4958740;28;20031;-77
2023/07/13 02:02:56;;;;;;;5.10;3.55;;;;;;;;;;4964760;28;20418;-77
2023/07/13 02:05:22;;;;;;;5.63;3.60;;;;;;;;;;4966378;28;20080;-77
2023/07/13 02:07:47;;;;;;;5.85;3.28;;;;;;;;;;4978202;28;20065;-77
2023/07/13 02:10:13;;;;;;;7.28;3.80;;;;;;;;;;4990286;28;20426;-78
2023/07/13 02:12:39;;;;;;;3.90;3.08;;;;;;;;;;4994058;28;20547;-77
2023/07/13 02:15:05;;;;;;;6.88;3.13;;;;;;;;;;4988796;28;20054;-77
2023/07/13 02:17:32;;;;;;;3.92;3.30;;;;;;;;;;4979177;28;20083;-77
2023/07/13 02:19:57;;;;;;;5.50;3.20;;;;;;;;;;4994921;28;20065;-77
2023/07/13 02:22:22;;;;;;;4.40;3.00;;;;;;;;;;4950344;28;20122;-77
2023/07/13 02:24:48;;;;;;;4.18;3.03;;;;;;;;;;4949952;28;20122;-77
2023/07/13 02:27:14;;;;;;;3.00;2.80;;;;;;;;;;4966443;28;20403;-77
2023/07/13 02:29:39;;;;;;;4.63;3.20;;;;;;;;;;4963548;28;20145;-77
2023/07/13 02:32:05;;;;;;;5.32;3.40;;;;;;;;;;4973866;28;20027;-78
2023/07/13 02:34:31;;;;;;;4.15;3.42;;;;;;;;;;4963185;28;20826;-77
2023/07/13 02:36:56;;;;;;;6.25;3.67;;;;;;;;;;4964197;28;20058;-77
2023/07/13 02:39:21;;;;;;;6.03;3.55;;;;;;;;;;4964453;28;20050;-77
2023/07/13 02:41:46;;;;;;;3.78;3.25;;;;;;;;;;4989317;28;20039;-77
2023/07/13 02:44:13;;;;;;;5.00;3.10;;;;;;;;;;4980226;28;20033;-77
2023/07/13 02:46:39;;;;;;;5.25;3.28;;;;;;;;;;4983102;28;20474;-77
2023/07/13 02:49:05;;;;;;;4.75;3.13;;;;;;;;;;4980822;28;20099;-77
2023/07/13 02:51:30;;;;;;;5.80;3.20;;;;;;;;;;4981277;28;20102;-77
2023/07/13 02:53:56;;;;;;;6.45;3.13;;;;;;;;;;4981060;28;20050;-77
2023/07/13 02:56:27;;;;;;;4.05;3.00;;;;;;;;;;4955242;28;20035;-77
2023/07/13 02:58:54;;;;;;;5.82;3.92;;;;;;;;;;4952492;28;20402;-77
2023/07/13 03:01:20;;;;;;;6.78;3.92;;;;;;;;;;4982507;28;20055;-77
2023/07/13 03:03:46;;;;;;;6.82;3.75;;;;;;;;;;4980449;28;20034;-77
2023/07/13 03:06:12;;;;;;;4.47;4.07;;;;;;;;;;4973533;28;20394;-78
2023/07/13 03:08:37;;;;;;;6.70;3.90;;;;;;;;;;4974405;28;20037;-77
2023/07/13 03:11:05;;;;;;;5.72;3.80;;;;;;;;;;4984172;28;20026;-77
2023/07/13 03:13:31;;;;;;;9.15;4.00;;;;;;;;;;4981558;28;20142;-77
2023/07/13 03:15:56;;;;;;;5.88;4.30;;;;;;;;;;4998502;28;20030;-77
2023/07/13 03:18:22;;;;;;;7.03;4.18;;;;;;;;;;4986199;28;20045;-77
2023/07/13 03:20:51;;;;;;;4.72;4.05;;;;;;;;;;4984616;28;20106;-77
2023/07/13 03:23:16;;;;;;;8.73;4.38;;;;;;;;;;4983014;28;20033;-77
2023/07/13 03:25:42;;;;;;;5.28;4.40;;;;;;;;;;4983958;28;20030;-77
2023/07/13 03:28:07;;;;;;;6.10;4.72;;;;;;;;;;4999453;28;20055;-77
2023/07/13 03:30:32;;;;;;;9.88;5.43;;;;;;;;;;5024327;28;20029;-77
2023/07/13 03:32:58;;;;;;;8.50;5.63;;;;;;;;;;4984480;28;20034;-77
2023/07/13 03:35:23;;;;;;;8.27;5.43;;;;;;;;;;4985945;28;20027;-77
2023/07/13 03:37:48;;;;;;;8.20;5.53;;;;;;;;;;4985193;28;20452;-77
2023/07/13 03:40:14;;;;;;;7.65;5.50;;;;;;;;;;4982311;28;20029;-77
2023/07/13 03:42:39;;;;;;;6.60;5.38;;;;;;;;;;4983051;28;20398;-77
2023/07/13 03:45:05;;;;;;;9.57;5.60;;;;;;;;;;4988930;28;20042;-78
2023/07/13 03:47:30;;;;;;;10.63;6.35;;;;;;;;;;4983849;28;20018;-79
2023/07/13 03:49:56;;;;;;;11.27;6.80;;;;;;;;;;4984079;28;20030;-77
2023/07/13 03:52:21;;;;;;;9.88;6.68;;;;;;;;;;4984361;28;20014;-77
2023/07/13 03:54:46;;;;;;;12.55;7.05;;;;;;;;;;5010101;28;20125;-77
2023/07/13 03:57:12;;;;;;;9.43;6.22;;;;;;;;;;4983033;28;20065;-77
2023/07/13 03:59:37;;;;;;;11.43;6.68;;;;;;;;;;4980371;28;20042;-77
2023/07/13 04:02:04;;;;;;;10.38;6.93;;;;;;;;;;4996946;28;20018;-77
2023/07/13 04:04:30;;;;;;;13.05;6.25;;;;;;;;;;4983953;28;20030;-77
2023/07/13 04:06:56;;;;;;;8.88;6.00;;;;;;;;;;4969069;28;20084;-77
2023/07/13 04:09:21;;;;;;;10.73;6.07;;;;;;;;;;4973407;28;20035;-77
2023/07/13 04:11:46;;;;;;;9.80;6.32;;;;;;;;;;4989945;28;20030;-77
2023/07/13 04:14:12;;;;;;;7.88;6.07;;;;;;;;;;4981834;28;20124;-77
2023/07/13 04:16:37;;;;;;;9.60;5.82;;;;;;;;;;4987418;28;20442;-77
2023/07/13 04:19:03;;;;;;;11.73;5.95;;;;;;;;;;4975692;28;20022;-78
2023/07/13 04:21:30;;;;;;;8.38;5.60;;;;;;;;;;4975543;28;20022;-77
2023/07/13 04:23:56;;;;;;;7.90;5.35;;;;;;;;;;4981363;28;20420;-79
2023/07/13 04:26:22;;;;;;;9.23;5.30;;;;;;;;;;4980332;28;20027;-77
2023/07/13 04:28:48;;;;;;;16.48;5.32;;;;;;;;;;4982981;28;20462;-77
2023/07/13 04:31:13;;;;;;;10.35;5.18;;;;;;;;;;5032219;28;20146;-77
2023/07/13 04:33:39;;;;;;;8.70;5.32;;;;;;;;;;4987184;28;20053;-77
2023/07/13 04:36:04;;;;;;;11.98;5.50;;;;;;;;;;4964281;28;20058;-77
2023/07/13 04:38:32;;;;;;;13.65;5.22;;;;;;;;;;5030678;28;20422;-77
2023/07/13 04:41:01;;;;;;;8.18;4.38;;;;;;;;;;4964927;28;20033;-77
2023/07/13 04:43:27;;;;;;;8.35;4.68;;;;;;;;;;4965224;28;20234;-79
2023/07/13 04:45:52;;;;;;;9.57;4.72;;;;;;;;;;4964314;28;20035;-77
2023/07/13 04:48:18;;;;;;;8.25;4.30;;;;;;;;;;4970271;28;20054;-77
2023/07/13 04:50:43;;;;;;;5.93;4.38;;;;;;;;;;4971732;28;20111;-77
2023/07/13 04:53:10;;;;;;;5.65;4.47;;;;;;;;;;4988945;28;20588;-77
2023/07/13 04:55:36;;;;;;;7.95;4.63;;;;;;;;;;4988972;28;20031;-77
2023/07/13 04:58:02;;;;;;;7.30;4.65;;;;;;;;;;4978437;28;20039;-78
2023/07/13 05:00:28;;;;;;;6.68;4.10;;;;;;;;;;4979224;28;20490;-77
2023/07/13 05:02:55;;;;;;;5.20;4.70;;;;;;;;;;4978256;28;20044;-77
2023/07/13 05:05:21;;;;;;;9.23;5.82;;;;;;;;;;4981837;28;20030;-77
2023/07/13 05:07:46;;;;;;;14.20;4.75;;;;;;;;;;4982272;28;20129;-78
2023/07/13 05:10:11;;;;;;;9.98;4.93;;;;;;;;;;4976467;28;20110;-77
2023/07/13 05:12:36;;;;;;;12.30;5.07;;;;;;;;;;4965418;28;20034;-78
2023/07/13 05:15:03;;;;;;;5.93;4.35;;;;;;;;;;4967670;28;20398;-77
2023/07/13 05:17:28;;;;;;;7.70;4.32;;;;;;;;;;4963297;28;20034;-77
2023/07/13 05:19:54;;;;;;;7.97;4.40;;;;;;;;;;4965374;28;21799;-77
2023/07/13 05:22:19;;;;;;;7.50;4.70;;;;;;;;;;4977511;28;20084;-77
2023/07/13 05:24:44;;;;;;;3.90;3.53;;;;;;;;;;4980885;28;20521;-77
2023/07/13 05:27:09;;;;;;;7.32;4.00;;;;;;;;;;4978174;28;20111;-77
2023/07/13 05:29:35;;;;;;;6.28;3.92;;;;;;;;;;4976328;28;21075;-77
2023/07/13 05:32:00;;;;;;;4.20;3.78;;;;;;;;;;4975117;28;20019;-77
2023/07/13 05:34:26;;;;;;;10.98;3.80;;;;;;;;;;4980080;28;20482;-77
2023/07/13 05:36:52;;;;;;;6.60;3.72;;;;;;;;;;4976059;28;20034;-77
2023/07/13 05:39:18;;;;;;;11.88;3.83;;;;;;;;;;4974975;28;20117;-77
2023/07/13 05:41:43;;;;;;;5.78;3.60;;;;;;;;;;4970338;28;20113;-77
2023/07/13 05:44:08;;;;;;;6.45;3.20;;;;;;;;;;4972294;28;20113;-79
2023/07/13 05:46:34;;;;;;;7.32;3.50;;;;;;;;;;4967380;28;20045;-77
2023/07/13 05:48:59;;;;;;;5.32;3.22;;;;;;;;;;4984576;28;20048;-78
2023/07/13 05:51:25;;;;;;;6.15;3.35;;;;;;;;;;4959678;28;20518;-78
2023/07/13 05:53:50;;;;;;;5.78;3.28;;;;;;;;;;4987884;28;20041;-78
2023/07/13 05:56:16;;;;;;;4.20;3.20;;;;;;;;;;5015573;28;20029;-78
2023/07/13 05:58:41;;;;;;;4.05;3.35;;;;;;;;;;4969977;28;20127;-78
2023/07/13 06:01:10;;;;;;;3.78;2.95;;;;;;;;;;4949960;28;20605;-78
2023/07/13 06:03:37;;;;;;;10.63;3.65;;;;;;;;;;4968063;28;20698;-78
2023/07/13 06:06:04;;;;;;;5.03;3.67;;;;;;;;;;4965832;28;20027;-78
2023/07/13 06:08:30;;;;;;;3.95;3.33;;;;;;;;;;4958259;28;20038;-78
2023/07/13 06:11:02;;;;;;;4.80;3.30;;;;;;;;;;4961563;28;20410;-78
2023/07/13 06:13:27;;;;;;;5.32;3.63;;;;;;;;;;5005162;28;20026;-78
2023/07/13 06:15:53;;;;;;;8.15;3.30;;;;;;;;;;4985151;28;20029;-78
2023/07/13 06:18:18;;;;;;;9.35;3.38;;;;;;;;;;4980926;28;20048;-79
2023/07/13 06:20:43;;;;;;;4.75;3.33;;;;;;;;;;5023192;28;20030;-78
2023/07/13 06:23:09;;;;;;;4.22;3.30;;;;;;;;;;5023428;28;20050;-79
2023/07/13 06:25:34;;;;;;;4.07;3.00;;;;;;;;;;4983847;28;20030;-77
2023/07/13 06:28:00;;;;;;;4.03;2.88;;;;;;;;;;4984409;28;20147;-78
2023/07/13 06:30:25;;;;;;;6.50;3.03;;;;;;;;;;4985249;28;20692;-78
2023/07/13 06:32:51;;;;;;;4.10;2.90;;;;;;;;;;4998743;28;20038;-78
2023/07/13 06:35:16;;;;;;;4.32;3.03;;;;;;;;;;5000793;28;20104;-78
2023/07/13 06:37:41;;;;;;;4.57;2.30;;;;;;;;;;4973980;28;20109;-78
2023/07/13 06:40:07;;;;;;;4.07;2.30;;;;;;;;;;4988300;28;20043;-78
2023/07/13 06:42:32;;;;;;;6.50;2.28;;;;;;;;;;4989019;28;20479;-78
2023/07/13 06:44:58;;;;;;;7.95;2.33;;;;;;;;;;4982360;28;20092;-78
2023/07/13 06:47:23;;;;;;;3.17;2.25;;;;;;;;;;4985039;28;20027;-78
2023/07/13 06:49:49;;;;;;;1.95;1.83;;;;;;;;;;5001356;28;20447;-78
2023/07/13 06:52:14;;;;;;;3.85;2.40;;;;;;;;;;4989090;28;20042;-78
2023/07/13 06:54:39;;;;;;;5.38;2.20;;;;;;;;;;4977538;28;20554;-77
2023/07/13 06:57:05;;;;;;;4.50;2.40;;;;;;;;;;4976904;28;20054;-78
2023/07/13 06:59:30;;;;;;;6.60;2.15;;;;;;;;;;5034020;28;20375;-78
2023/07/13 07:01:55;;;;;;;2.72;2.35;;;;;;;;;;4985443;28;20027;-78
2023/07/13 07:04:20;;;;;;;6.88;2.72;;;;;;;;;;5014766;28;20064;-78
2023/07/13 07:06:46;;;;;;;4.55;2.33;;;;;;;;;;5009396;28;20034;-79
2023/07/13 07:09:11;;;;;;;2.55;2.35;;;;;;;;;;4984300;28;20022;-79
2023/07/13 07:11:36;;;;;;;4.60;3.00;;;;;;;;;;4995730;28;20022;-78
2023/07/13 07:14:02;;;;;;;2.90;2.63;;;;;;;;;;4994583;28;20177;-78
2023/07/13 07:16:27;;;;;;;4.82;2.88;;;;;;;;;;4971037;28;20034;-81
2023/07/13 07:18:53;;;;;;;4.53;2.70;;;;;;;;;;4979081;28;20034;-78
2023/07/13 07:21:18;;;;;;;7.68;3.08;;;;;;;;;;4968333;28;20095;-78
2023/07/13 07:23:43;;;;;;;4.20;3.03;;;;;;;;;;4960121;28;20018;-79
2023/07/13 07:26:10;;;;;;;9.40;3.20;;;;;;;;;;4966236;28;20072;-78
2023/07/13 07:28:35;;;;;;;6.70;3.25;;;;;;;;;;4969882;28;20046;-78
2023/07/13 07:31:01;;;;;;;3.97;3.13;;;;;;;;;;4977241;28;20026;-78
2023/07/13 07:33:26;;;;;;;11.63;3.30;;;;;;;;;;4976752;28;20038;-78
2023/07/13 07:35:51;;;;;;;5.30;2.90;;;;;;;;;;5002138;28;20521;-78
2023/07/13 07:38:17;;;;;;;6.18;2.95;;;;;;;;;;4993894;28;20027;-77
2023/07/13 07:40:42;;;;;;;6.03;3.13;;;;;;;;;;4984767;28;20496;-79
2023/07/13 07:43:09;;;;;;;5.97;3.05;;;;;;;;;;4981193;28;20034;-77
2023/07/13 07:45:35;;;;;;;4.47;3.28;;;;;;;;;;4987470;28;20121;-77
2023/07/13 07:48:00;;;;;;;7.22;3.30;;;;;;;;;;4970154;28;20122;-77
2023/07/13 07:50:27;;;;;;;6.03;3.47;;;;;;;;;;4964246;28;20180;-78
2023/07/13 07:52:52;;;;;;;8.95;3.97;;;;;;;;;;4972670;28;20052;-78
2023/07/13 07:55:17;;;;;;;4.88;3.78;;;;;;;;;;4981819;28;20030;-79
2023/07/13 07:57:43;;;;;;;4.82;3.38;;;;;;;;;;4990467;28;20026;-80
2023/07/13 08:00:09;;;;;;;6.43;3.50;;;;;;;;;;4990614;28;20145;-80
2023/07/13 08:02:34;;;;;;;5.70;3.78;;;;;;;;;;4987663;28;20118;-78
2023/07/13 08:04:59;;;;;;;5.03;2.80;;;;;;;;;;4985246;28;20031;-78
2023/07/13 08:07:24;;;;;;;5.50;3.63;;;;;;;;;;4993908;28;20556;-79
2023/07/13 08:09:54;;;;;;;3.78;2.97;;;;;;;;;;5003061;28;20022;-80
2023/07/13 08:12:19;;;;;;;5.10;3.17;;;;;;;;;;4978930;28;20518;-79
2023/07/13 08:14:44;;;;;;;9.88;3.22;;;;;;;;;;4977301;28;20030;-79
2023/07/13 08:17:10;;;;;;;6.20;3.55;;;;;;;;;;4960243;28;20085;-78
2023/07/13 08:19:35;;;;;;;13.48;3.15;;;;;;;;;;4971591;28;20033;-77
2023/07/13 08:22:00;;;;;;;4.35;2.65;;;;;;;;;;4971305;28;20096;-76
2023/07/13 08:24:26;;;;;;;5.25;2.63;;;;;;;;;;4971905;28;20045;-78
2023/07/13 08:26:52;;;;;;;3.10;2.20;;;;;;;;;;4986968;28;20050;-76
2023/07/13 08:29:17;;;;;;;4.18;2.40;;;;;;;;;;4987172;28;20122;-77
2023/07/13 08:31:42;;;;;;;3.22;2.28;;;;;;;;;;4991179;28;20045;-78
2023/07/13 08:34:08;;;;;;;3.65;2.00;;;;;;;;;;4990397;28;20486;-77
2023/07/13 08:36:33;;;;;;;4.32;2.45;;;;;;;;;;4990635;28;20105;-77
2023/07/13 08:38:58;;;;;;;3.53;2.05;;;;;;;;;;4990872;28;20098;-78
2023/07/13 08:41:24;;;;;;;2.50;2.30;;;;;;;;;;4990674;28;20030;-76
2023/07/13 08:43:53;;;;;;;6.22;2.30;;;;;;;;;;4990790;28;20490;-77
2023/07/13 08:46:25;;;;;;;4.90;2.58;;;;;;;;;;4990487;28;20023;-78
2023/07/13 08:48:55;;;;;;;2.60;2.10;;;;;;;;;;4991126;28;20109;-78
2023/07/13 08:51:30;;;;;;;3.55;2.40;;;;;;;;;;4991317;28;20025;-78
2023/07/13 08:54:00;;;;;;;4.47;2.50;;;;;;;;;;4991595;28;20027;-78
2023/07/13 08:56:28;;;;;;;3.92;2.47;;;;;;;;;;4990685;28;20113;-78
2023/07/13 08:58:57;;;;;;;3.55;2.20;;;;;;;;;;4991270;28;20547;-78
2023/07/13 09:01:32;;;;;;;3.33;2.00;;;;;;;;;;5005550;28;20032;-78
2023/07/13 09:04:09;;;;;;;2.53;2.20;;;;;;;;;;4990813;28;20048;-78
2023/07/13 09:07:01;;;;;;;4.35;1.90;;;;;;;;;;4990545;28;20490;-78
2023/07/13 09:09:41;;;;;;;10.13;2.63;;;;;;;;;;4990846;28;20026;-78
2023/07/13 09:12:18;;;;;;;4.40;2.03;;;;;;;;;;4991053;28;20061;-78
2023/07/13 09:14:48;;;;;;;1.75;1.63;;;;;;;;;;4991042;28;20030;-78
2023/07/13 09:17:29;;;;;;;3.95;2.22;;;;;;;;;;5006118;28;20402;-76
2023/07/13 09:20:03;;;;;;;2.95;1.98;;;;;;;;;;5006377;28;20026;-78
2023/07/13 09:22:33;;;;;;;8.57;2.03;;;;;;;;;;4990110;28;20452;-78
2023/07/13 09:25:12;;;;;;;5.82;2.33;;;;;;;;;;4990621;28;20030;-78
2023/07/13 09:27:41;;;;;;;3.42;2.20;;;;;;;;;;4990720;28;20031;-76
2023/07/13 09:30:15;;;;;;;4.43;2.10;;;;;;;;;;4991332;28;20026;-78
2023/07/13 09:32:43;;;;;;;;;;;;;;;;;;4990000;28;20478;-78
2023/07/13 09:35:14;;;;;;;5.47;2.30;;;;;;;;;;5006015;28;19917;-76
2023/07/13 09:37:43;;;;;;;4.15;2.20;;;;;;;;;;5072659;28;20503;-77
2023/07/13 09:40:20;;;;;;;3.72;2.40;;;;;;;;;;5073617;28;20104;-78
2023/07/13 09:42:46;;;;;;;7.25;2.15;;;;;;;;;;5073121;28;20035;-78
2023/07/13 09:45:25;;;;;;;3.95;2.13;;;;;;;;;;5088795;28;20031;-78
2023/07/13 09:48:06;;;;;;;2.47;1.92;;;;;;;;;;5089170;28;20031;-77
2023/07/13 09:50:31;;;;;;;3.17;2.08;;;;;;;;;;5073685;28;20028;-79
2023/07/13 09:52:59;;;;;;;6.03;1.90;;;;;;;;;;5089910;28;20032;-79
2023/07/13 09:55:37;;;;;;;6.65;2.30;;;;;;;;;;5084835;28;20052;-79
2023/07/13 09:58:14;;;;;;;4.68;2.17;;;;;;;;;;4972605;28;20053;-79
2023/07/13 10:00:40;;;;;;;4.43;1.42;;;;;;;;;;4987303;28;20031;-79
2023/07/13 10:03:22;;;;;;;1.27;1.20;;;;;;;;;;4987730;28;20475;-79
2023/07/13 10:05:50;;;;;;;1.58;1.40;;;;;;;;;;4972992;28;20169;-76
2023/07/13 10:08:23;;;;;;;4.85;1.88;;;;;;;;;;4971677;28;20115;-79
2023/07/13 10:11:12;;;;;;;3.17;1.70;;;;;;;;;;4987427;28;20081;-79
2023/07/13 10:13:55;;;;;;;6.60;1.75;;;;;;;;;;4973498;28;20048;-78
2023/07/13 10:16:21;;;;;;;2.38;1.55;;;;;;;;;;4970936;28;20039;-76
2023/07/13 10:18:50;;;;;;;1.40;1.30;;;;;;;;;;4990392;28;20023;-79
2023/07/13 10:21:20;;;;;;;5.38;1.70;;;;;;;;;;4990958;28;20023;-78
2023/07/13 10:23:50;;;;;;;2.28;1.70;;;;;;;;;;4976946;28;20113;-78
2023/07/13 10:26:21;;;;;;;4.30;1.50;;;;;;;;;;4975130;28;20436;-78
2023/07/13 10:28:51;;;;;;;3.50;1.50;;;;;;;;;;4975817;28;20019;-77
2023/07/13 10:31:17;;;;;;;3.85;1.30;;;;;;;;;;4976116;28;20453;-79
2023/07/13 10:33:43;;;;;;;1.60;1.38;;;;;;;;;;4991086;28;20022;-79
2023/07/13 10:36:23;;;;;;;2.17;1.52;;;;;;;;;;4990550;28;20030;-78
2023/07/13 10:38:51;;;;;;;5.00;2.20;;;;;;;;;;4991437;28;20022;-79
2023/07/13 10:41:20;;;;;;;3.60;1.45;;;;;;;;;;4976564;28;20090;-79
2023/07/13 10:43:50;;;;;;;3.33;1.67;;;;;;;;;;4975916;28;20031;-79
2023/07/13 10:46:19;;;;;;;4.30;1.75;;;;;;;;;;4991258;28;20027;-79
2023/07/13 10:48:49;;;;;;;9.05;1.50;;;;;;;;;;4976109;28;20027;-78
2023/07/13 10:51:17;;;;;;;9.55;1.60;;;;;;;;;;4976030;28;20422;-79
2023/07/13 10:53:43;;;;;;;8.32;1.70;;;;;;;;;;4990254;28;20050;-77
2023/07/13 10:56:28;;;;;;;3.58;1.73;;;;;;;;;;4975002;28;20019;-78
2023/07/13 10:59:08;;;;;;;6.18;1.58;;;;;;;;;;4976023;28;20023;-79
2023/07/13 11:01:40;;;;;;;2.88;1.70;;;;;;;;;;4976173;28;20022;-79
2023/07/13 11:04:12;;;;;;;2.08;1.50;;;;;;;;;;4976485;28;20137;-78
2023/07/13 11:06:41;;;;;;;4.93;1.65;;;;;;;;;;4976479;28;20050;-77
2023/07/13 11:09:44;;;;;;;8.57;2.15;;;;;;;;;;4975949;28;20038;-79
2023/07/13 11:12:17;;;;;;;5.05;1.70;;;;;;;;;;4975429;28;20428;-77
2023/07/13 11:15:02;;;;;;;5.88;1.70;;;;;;;;;;4976039;28;20437;-78
2023/07/13 11:17:46;;;;;;;3.25;1.80;;;;;;;;;;4990756;28;20240;-79
2023/07/13 11:20:12;;;;;;;2.78;1.30;;;;;;;;;;4975973;28;20122;-79
2023/07/13 11:22:53;;;;;;;4.70;1.77;;;;;;;;;;4975585;28;20542;-80
2023/07/13 11:25:18;;;;;;;5.20;1.90;;;;;;;;;;4991541;28;20098;-78
2023/07/13 11:27:50;;;;;;;13.55;2.10;;;;;;;;;;4974818;28;20516;-79
2023/07/13 11:30:34;;;;;;;3.58;1.63;;;;;;;;;;4976261;28;20034;-79
2023/07/13 11:33:20;;;;;;;3.25;1.42;;;;;;;;;;4977452;28;20027;-80
2023/07/13 11:35:53;;;;;;;5.40;1.80;;;;;;;;;;4955078;29;20070;-78
2023/07/13 11:38:23;;;;;;;2.90;1.60;;;;;;;;;;4955184;28;20031;-78
2023/07/13 11:40:52;;;;;;;4.05;1.90;;;;;;;;;;4985557;28;20050;-78
2023/07/13 11:43:17;;;;;;;3.03;1.70;;;;;;;;;;4955086;28;20030;-78
2023/07/13 11:45:44;;;;;;;2.95;2.08;;;;;;;;;;4957077;28;20035;-79
2023/07/13 11:48:31;;;;;;;3.13;1.77;;;;;;;;;;4956935;28;20395;-78
2023/07/13 11:51:04;;;;;;;4.65;1.98;;;;;;;;;;4956725;28;20027;-77
2023/07/13 11:53:39;;;;;;;2.28;1.65;;;;;;;;;;4955163;28;20023;-76
2023/07/13 11:56:05;;;;;;;3.67;1.90;;;;;;;;;;4970113;28;20040;-78
2023/07/13 11:58:32;;;;;;;3.03;1.77;;;;;;;;;;4955063;28;20487;-78
2023/07/13 12:01:01;;;;;;;6.30;1.90;;;;;;;;;;4954226;28;20483;-77
2023/07/13 12:03:27;;;;;;;2.95;1.85;;;;;;;;;;4954409;28;20024;-78
2023/07/13 12:06:19;;;;;;;4.00;1.70;;;;;;;;;;4954059;28;20030;-76
2023/07/13 12:08:45;;;;;;;5.35;2.10;;;;;;;;;;4953777;28;20023;-78
2023/07/13 12:11:17;;;;;;;4.05;2.10;;;;;;;;;;4953322;28;20110;-78
2023/07/13 12:13:44;;;;;;;5.05;1.85;;;;;;;;;;4953940;28;20043;-78
2023/07/13 12:16:24;;;;;;;2.83;1.83;;;;;;;;;;4953940;28;20031;-79
2023/07/13 12:18:52;;;;;;;3.90;1.60;;;;;;;;;;4956214;28;20023;-79
2023/07/13 12:21:19;;;;;;;2.92;1.73;;;;;;;;;;4956291;28;20400;-79
2023/07/13 12:23:49;;;;;;;2.40;1.60;;;;;;;;;;4956387;28;20138;-77
2023/07/13 12:26:16;;;;;;;4.82;1.70;;;;;;;;;;4957075;28;20019;-79
2023/07/13 12:28:54;;;;;;;3.70;1.52;;;;;;;;;;4955844;28;20418;-79
2023/07/13 12:31:33;;;;;;;2.97;1.88;;;;;;;;;;4956771;28;20031;-80
2023/07/13 12:34:07;;;;;;;3.42;1.73;;;;;;;;;;4971802;28;20035;-80
2023/07/13 12:36:36;;;;;;;4.57;1.65;;;;;;;;;;4957521;28;20106;-79
2023/07/13 12:39:12;;;;;;;6.18;1.83;;;;;;;;;;4956297;28;20034;-79
2023/07/13 12:41:37;;;;;;;1.77;1.63;;;;;;;;;;4953878;28;20033;-79
2023/07/13 12:44:03;;;;;;;4.90;1.70;;;;;;;;;;4954841;28;20051;-79
2023/07/13 12:46:29;;;;;;;9.05;1.90;;;;;;;;;;5037437;28;20032;-80
2023/07/13 12:48:57;;;;;;;2.55;1.90;;;;;;;;;;5091392;28;20515;-79
2023/07/13 12:51:25;;;;;;;3.90;1.67;;;;;;;;;;5091541;28;20197;-77
2023/07/13 12:53:58;;;;;;;3.42;1.60;;;;;;;;;;5075358;28;20445;-78
2023/07/13 12:56:26;;;;;;;3.55;1.85;;;;;;;;;;5075773;28;20066;-80
2023/07/13 12:58:59;;;;;;;4.53;1.88;;;;;;;;;;5092179;28;20091;-79
2023/07/13 13:01:28;;;;;;;2.38;1.70;;;;;;;;;;5091184;28;20480;-78
2023/07/13 13:03:57;;;;;;;2.45;1.70;;;;;;;;;;5089500;28;20024;-78
2023/07/13 13:06:26;;;;;;;3.63;1.95;;;;;;;;;;5074695;28;20074;-78
2023/07/13 13:08:54;;;;;;;3.60;1.80;;;;;;;;;;5076160;28;20484;-79
2023/07/13 13:11:22;;;;;;;2.60;1.90;;;;;;;;;;5091870;28;20369;-80
2023/07/13 13:13:48;;;;;;;5.40;2.00;;;;;;;;;;5077265;28;20085;-79
2023/07/13 13:16:17;;;;;;;2.45;1.60;;;;;;;;;;5077349;28;20035;-79
2023/07/13 13:18:42;;;;;;;2.70;1.80;;;;;;;;;;5077249;28;20020;-80
2023/07/13 13:21:10;;;;;;;2.45;1.58;;;;;;;;;;5102407;28;20184;-78
2023/07/13 13:23:35;;;;;;;3.05;1.85;;;;;;;;;;5099310;28;20030;-76
2023/07/13 13:26:01;;;;;;;4.28;1.90;;;;;;;;;;5079635;28;20021;-77
2023/07/13 13:28:27;;;;;;;4.93;1.73;;;;;;;;;;5097098;28;20017;-78
2023/07/13 13:30:52;;;;;;;3.22;1.63;;;;;;;;;;5081538;28;20020;-76
2023/07/13 13:33:20;;;;;;;4.72;1.88;;;;;;;;;;5096118;28;20021;-76
2023/07/13 13:35:46;;;;;;;2.33;1.83;;;;;;;;;;5097111;28;20025;-77
2023/07/13 13:38:16;;;;;;;2.30;1.77;;;;;;;;;;5081461;28;20548;-78
2023/07/13 13:40:43;;;;;;;3.22;2.00;;;;;;;;;;5095020;28;20115;-77
2023/07/13 13:43:17;;;;;;;3.88;1.90;;;;;;;;;;5074413;28;20016;-77
2023/07/13 13:45:45;;;;;;;6.00;2.00;;;;;;;;;;5090485;28;20081;-78
2023/07/13 13:48:16;;;;;;;3.20;2.08;;;;;;;;;;5074194;28;20016;-80
2023/07/13 13:50:41;;;;;;;2.03;1.70;;;;;;;;;;5076580;28;20021;-80
2023/07/13 13:53:11;;;;;;;4.22;2.33;;;;;;;;;;5087468;28;20025;-78
2023/07/13 13:55:36;;;;;;;3.53;1.73;;;;;;;;;;5072770;28;20020;-78
2023/07/13 13:58:02;;;;;;;10.15;2.20;;;;;;;;;;5073293;28;20109;-79
2023/07/13 14:00:27;;;;;;;4.13;1.75;;;;;;;;;;5073403;28;20155;-78
2023/07/13 14:02:54;;;;;;;4.68;1.80;;;;;;;;;;5074416;28;20056;-78
2023/07/13 14:05:27;;;;;;;3.28;1.83;;;;;;;;;;5074642;28;20027;-79
2023/07/13 14:07:54;;;;;;;5.75;2.03;;;;;;;;;;5090300;28;20345;-79
2023/07/13 14:10:20;;;;;;;4.38;1.80;;;;;;;;;;5074265;28;20036;-78
2023/07/13 14:12:48;;;;;;;8.35;2.03;;;;;;;;;;5074431;28;20040;-79
2023/07/13 14:15:26;;;;;;;5.38;1.98;;;;;;;;;;5088960;28;20048;-78
2023/07/13 14:17:52;;;;;;;2.83;1.77;;;;;;;;;;5021940;28;20030;-77
2023/07/13 14:20:19;;;;;;;3.67;1.85;;;;;;;;;;4978531;28;20019;-77
2023/07/13 14:22:45;;;;;;;6.03;2.00;;;;;;;;;;4977897;28;20042;-78
2023/07/13 14:25:12;;;;;;;4.80;2.05;;;;;;;;;;4998068;28;20113;-77
2023/07/13 14:27:39;;;;;;;6.82;1.70;;;;;;;;;;4993072;28;20030;-78
2023/07/13 14:30:12;;;;;;;3.85;1.80;;;;;;;;;;4994812;28;20106;-77
2023/07/13 14:32:38;;;;;;;2.25;1.77;;;;;;;;;;5019188;28;20135;-78
2023/07/13 14:35:03;;;;;;;7.28;2.20;;;;;;;;;;4981012;28;20145;-78
2023/07/13 14:37:29;;;;;;;2.70;2.00;;;;;;;;;;4995664;28;20033;-77
2023/07/13 14:39:54;;;;;;;3.33;1.90;;;;;;;;;;4991960;28;20072;-78
2023/07/13 14:42:19;;;;;;;1.88;1.73;;;;;;;;;;4984872;28;20014;-77
2023/07/13 14:44:45;;;;;;;4.00;1.80;;;;;;;;;;5025714;28;20203;-77
2023/07/13 14:47:11;;;;;;;2.50;1.73;;;;;;;;;;4986496;28;20030;-77
2023/07/13 14:49:39;;;;;;;2.97;1.90;;;;;;;;;;4985969;28;20470;-77
2023/07/13 14:52:14;;;;;;;2.33;1.88;;;;;;;;;;4977236;28;20031;-78